Medrano, Argentina
Current Conditions -  °F | °C
As of 6:00 PM on Friday 19 Dec 2014 (Local Time) from SAME Reporting Station
Few Clouds Few Clouds  
Wind Chill: 97°   Ceiling: Unl
Heat Index: 97°   Visibility: 6mi
Dew Point: 52°   Wind: 6mph
Humidity: 22%   Direction: 140°SE
Pressure: 29.44"   Gusts: NA
Location:  33.18°S, 68.62°W
Report Text: SAME 192100Z 14005KT 9999 FEW040TCU 36/11 Q0997
Loading
Personal Weather Stations






























Interactive Weather Map New forecast layout! Learn more

10-Day Weather Forecast

Advertisements
Track Severe Weather on mobile